Time;durP1;ratioP1;P1;durP2;ratioP2;P2;SDS_P1;SDS_P2;PMS_P1;PMS_P2;Temp;Humidity;BMP_temperature;BMP_pressure;BME280_temperature;BME280_humidity;BME280_pressure;Samples;Min_cycle;Max_cycle;Signal;HPM_P1;HPM_P2
2022/02/08 00:00:28;;;;;;;11.70;8.23;;;;;21.10;101514.00;;;;2060572;28;20226;-46
2022/02/08 00:01:29;;;;;;;11.30;8.00;;;;;21.10;101526.00;;;;2062091;28;20256;-46
2022/02/08 00:02:32;;;;;;;10.07;7.10;;;;;21.10;101524.00;;;;2059081;28;20583;-46
2022/02/08 00:03:33;;;;;;;10.63;8.05;;;;;21.00;101523.00;;;;2062909;28;20246;-46
2022/02/08 00:04:33;;;;;;;12.80;7.77;;;;;21.10;101530.00;;;;2062966;28;20219;-45
2022/02/08 00:05:36;;;;;;;10.80;7.70;;;;;21.10;101535.00;;;;2062921;28;20223;-46
2022/02/08 00:07:40;;;;;;;9.63;7.50;;;;;21.00;101532.00;;;;2059221;28;20306;-46
2022/02/08 00:08:40;;;;;;;14.60;8.60;;;;;21.00;101528.00;;;;2054545;28;20222;-47
2022/02/08 00:09:41;;;;;;;10.27;7.17;;;;;21.00;101529.00;;;;2054966;28;20583;-47
2022/02/08 00:10:42;;;;;;;9.85;7.50;;;;;21.00;101531.00;;;;2053819;28;20706;-46
2022/02/08 00:11:43;;;;;;;10.73;7.37;;;;;21.00;101543.00;;;;2054623;28;20227;-47
2022/02/08 00:12:44;;;;;;;12.38;7.60;;;;;21.00;101528.00;;;;2053831;28;20211;-47
2022/02/08 00:13:44;;;;;;;11.33;7.50;;;;;21.00;101533.00;;;;2059745;28;20759;-46
2022/02/08 00:14:47;;;;;;;9.50;6.77;;;;;21.00;101532.00;;;;2062526;28;20203;-46
2022/02/08 00:15:47;;;;;;;11.93;7.10;;;;;21.00;101529.00;;;;2062902;28;20879;-46
2022/02/08 00:16:48;;;;;;;11.23;6.20;;;;;21.00;101535.00;;;;2060417;28;20242;-46
2022/02/08 00:17:48;;;;;;;11.60;7.90;;;;;21.00;101533.00;;;;2062785;28;20221;-47
2022/02/08 00:18:49;;;;;;;11.90;8.60;;;;;20.80;101531.00;;;;2062680;28;20680;-46
2022/02/08 00:19:49;;;;;;;11.23;8.20;;;;;20.80;101529.00;;;;2062541;28;20215;-46
2022/02/08 00:20:50;;;;;;;12.10;7.33;;;;;20.90;101525.00;;;;2061849;28;20222;-46
2022/02/08 00:21:50;;;;;;;12.47;7.90;;;;;21.00;101524.00;;;;2062683;28;20211;-46
2022/02/08 00:22:50;;;;;;;14.07;7.10;;;;;21.00;101522.00;;;;2059173;28;20211;-46
2022/02/08 00:23:51;;;;;;;9.83;7.00;;;;;21.00;101517.00;;;;2062632;28;20207;-46
2022/02/08 00:24:51;;;;;;;8.20;5.67;;;;;21.00;101518.00;;;;2062775;28;20219;-46
2022/02/08 00:25:52;;;;;;;11.63;7.10;;;;;21.00;101516.00;;;;2061862;28;20226;-46
2022/02/08 00:26:54;;;;;;;8.52;5.97;;;;;21.00;101517.00;;;;2052450;28;20327;-47
2022/02/08 00:27:54;;;;;;;9.35;6.45;;;;;21.00;101516.00;;;;2047077;28;20216;-46
2022/02/08 00:28:55;;;;;;;9.77;5.93;;;;;21.00;101517.00;;;;2046662;28;20587;-46
2022/02/08 00:29:55;;;;;;;10.17;6.00;;;;;21.00;101516.00;;;;2046860;28;20621;-46
2022/02/08 00:30:56;;;;;;;10.10;6.07;;;;;21.00;101521.00;;;;2045473;28;20220;-46
2022/02/08 00:31:56;;;;;;;8.50;5.30;;;;;21.00;101503.00;;;;2046792;28;20228;-46
2022/02/08 00:32:56;;;;;;;7.80;5.23;;;;;21.00;101512.00;;;;2050738;28;20704;-46
2022/02/08 00:33:57;;;;;;;10.10;5.10;;;;;20.90;101507.00;;;;2055817;28;20211;-46
2022/02/08 00:34:57;;;;;;;7.20;5.07;;;;;21.00;101518.00;;;;2054731;28;20219;-46
2022/02/08 00:35:59;;;;;;;9.90;5.13;;;;;20.90;101510.00;;;;2048187;28;20219;-46
2022/02/08 00:36:59;;;;;;;7.75;4.85;;;;;20.90;101520.00;;;;2042939;28;20226;-46
2022/02/08 00:38:00;;;;;;;11.80;5.40;;;;;20.90;101515.00;;;;2041105;28;20220;-46
2022/02/08 00:39:00;;;;;;;8.83;5.33;;;;;20.90;101508.00;;;;2045957;28;20271;-46
2022/02/08 00:40:01;;;;;;;6.87;4.20;;;;;20.90;101497.00;;;;2052636;28;20215;-46
2022/02/08 00:41:02;;;;;;;8.38;5.30;;;;;20.90;101506.00;;;;2044874;28;20232;-46
2022/02/08 00:42:06;;;;;;;7.40;5.00;;;;;20.90;101502.00;;;;2045898;28;20251;-46
2022/02/08 00:43:08;;;;;;;8.05;4.68;;;;;20.90;101498.00;;;;2053437;28;20238;-46
2022/02/08 00:44:24;;;;;;;8.07;5.43;;;;;20.90;101499.00;;;;2054052;28;20676;-46
2022/02/08 00:47:39;;;;;;;9.82;5.05;;;;;20.90;101502.00;;;;2052787;28;20684;-47
2022/02/08 00:48:53;;;;;;;5.93;4.50;;;;;20.90;101496.00;;;;2045729;28;20216;-46
2022/02/08 00:49:53;;;;;;;6.25;4.47;;;;;20.90;101493.00;;;;2051741;28;20214;-46
2022/02/08 00:50:53;;;;;;;10.00;5.50;;;;;20.90;101509.00;;;;2044179;28;20717;-46
2022/02/08 00:52:03;;;;;;;6.60;4.63;;;;;20.90;101502.00;;;;2045628;28;20212;-46
2022/02/08 00:53:04;;;;;;;7.22;5.10;;;;;20.90;101504.00;;;;2045529;28;20275;-46
2022/02/08 00:54:04;;;;;;;7.87;4.40;;;;;20.90;101512.00;;;;2046194;28;20224;-46
2022/02/08 00:55:07;;;;;;;10.17;5.60;;;;;20.90;101507.00;;;;2049834;28;20337;-46
2022/02/08 00:56:08;;;;;;;5.70;3.90;;;;;20.90;101519.00;;;;2053689;28;20258;-46
2022/02/08 00:57:08;;;;;;;5.57;3.73;;;;;20.90;101500.00;;;;2053887;28;20220;-47
2022/02/08 00:58:09;;;;;;;5.03;4.20;;;;;20.90;101511.00;;;;2053870;28;20684;-46
2022/02/08 00:59:10;;;;;;;6.43;4.55;;;;;20.80;101503.00;;;;2053950;28;20230;-46
2022/02/08 01:00:11;;;;;;;8.17;4.33;;;;;20.80;101499.00;;;;2054436;28;20650;-46
2022/02/08 01:01:11;;;;;;;7.47;4.33;;;;;20.80;101504.00;;;;2053605;28;20578;-47
2022/02/08 01:02:12;;;;;;;7.23;3.90;;;;;20.90;101504.00;;;;2053969;28;20579;-46
2022/02/08 01:03:12;;;;;;;7.20;4.10;;;;;20.80;101507.00;;;;2053004;28;20304;-46
2022/02/08 01:04:14;;;;;;;6.87;4.10;;;;;20.90;101504.00;;;;2050628;28;20233;-46
2022/02/08 01:05:16;;;;;;;7.75;3.75;;;;;20.80;101514.00;;;;2045692;28;20454;-46
2022/02/08 01:06:17;;;;;;;7.60;4.60;;;;;20.80;101513.00;;;;2054332;28;20227;-46
2022/02/08 01:07:17;;;;;;;8.37;4.33;;;;;20.80;101505.00;;;;2054191;28;20298;-48
2022/02/08 01:08:19;;;;;;;7.47;4.53;;;;;20.80;101514.00;;;;2054207;28;20578;-49
2022/02/08 01:09:26;;;;;;;7.55;4.38;;;;;20.80;101505.00;;;;2053463;28;20219;-47
2022/02/08 01:10:33;;;;;;;7.13;3.80;;;;;20.80;101511.00;;;;2053058;28;20259;-45
2022/02/08 01:11:34;;;;;;;7.05;4.20;;;;;20.80;101520.00;;;;2054264;28;20207;-46
2022/02/08 01:12:35;;;;;;;10.50;4.50;;;;;20.80;101519.00;;;;2054249;28;20243;-46
2022/02/08 01:13:37;;;;;;;9.20;4.20;;;;;20.80;101513.00;;;;2046774;28;20231;-46
2022/02/08 01:14:41;;;;;;;7.47;4.22;;;;;20.80;101510.00;;;;2053856;28;20272;-46
2022/02/08 01:15:41;;;;;;;6.40;4.10;;;;;20.80;101511.00;;;;2052680;28;20235;-46
2022/02/08 01:16:42;;;;;;;7.13;3.63;;;;;20.80;101516.00;;;;2054517;28;20266;-46
2022/02/08 01:17:43;;;;;;;8.10;3.77;;;;;20.80;101518.00;;;;2053723;28;20219;-46
2022/02/08 01:18:45;;;;;;;6.65;3.45;;;;;20.80;101513.00;;;;2045458;28;20224;-46
2022/02/08 01:19:54;;;;;;;7.20;4.25;;;;;20.80;101510.00;;;;2053626;28;20326;-46
2022/02/08 01:20:54;;;;;;;6.25;4.15;;;;;20.80;101520.00;;;;2061126;28;20215;-46
2022/02/08 01:21:54;;;;;;;8.53;4.20;;;;;20.80;101517.00;;;;2062328;28;20211;-46
2022/02/08 01:22:55;;;;;;;7.77;3.77;;;;;20.80;101508.00;;;;2062022;28;20300;-46
2022/02/08 01:23:55;;;;;;;6.30;3.73;;;;;20.80;101513.00;;;;2060806;28;20298;-46
2022/02/08 01:24:55;;;;;;;7.20;3.87;;;;;20.80;101506.00;;;;2061783;28;20213;-46
2022/02/08 01:25:59;;;;;;;7.47;3.30;;;;;20.80;101512.00;;;;2062070;28;20219;-46
2022/02/08 01:27:05;;;;;;;8.15;4.35;;;;;20.80;101518.00;;;;2062104;28;20349;-47
2022/02/08 01:28:14;;;;;;;6.85;4.05;;;;;20.80;101521.00;;;;2060963;28;20762;-46
2022/02/08 01:29:23;;;;;;;6.63;3.63;;;;;20.70;101517.00;;;;2062181;28;20223;-46
2022/02/08 01:30:42;;;;;;;7.32;3.75;;;;;20.70;101518.00;;;;2061516;28;20221;-46
2022/02/08 01:31:45;;;;;;;7.97;3.72;;;;;20.70;101502.00;;;;2062343;28;20211;-46
2022/02/08 01:33:11;;;;;;;8.30;3.65;;;;;20.70;101512.00;;;;2062036;28;20215;-46
2022/02/08 01:34:26;;;;;;;5.40;3.75;;;;;20.70;101508.00;;;;2060902;28;20223;-46
2022/02/08 01:35:46;;;;;;;6.90;3.38;;;;;20.70;101503.00;;;;2058774;28;20295;-47
2022/02/08 01:37:55;;;;;;;6.10;3.67;;;;;20.70;101510.00;;;;2062233;28;20215;-46
2022/02/08 01:41:31;;;;;;;6.77;3.60;;;;;20.70;101504.00;;;;2059660;28;20215;-46
2022/02/08 01:42:50;;;;;;;7.40;3.55;;;;;20.70;101516.00;;;;2060825;28;20215;-46
2022/02/08 01:45:25;;;;;;;7.05;3.40;;;;;20.70;101510.00;;;;2061860;28;20230;-46
2022/02/08 01:46:48;;;;;;;7.05;3.22;;;;;20.70;101507.00;;;;2054571;28;20223;-46
2022/02/08 01:48:04;;;;;;;7.18;3.58;;;;;20.70;101508.00;;;;2060354;28;20921;-47
2022/02/08 01:49:55;;;;;;;8.35;3.55;;;;;20.70;101506.00;;;;2061738;28;20223;-46
2022/02/08 01:50:31;;;;;;;5.90;3.20;;;;;20.60;101508.00;;;;2054575;28;20203;-47
2022/02/08 01:51:32;;;;;;;7.03;3.53;;;;;20.70;101507.00;;;;2061026;28;20210;-46
2022/02/08 01:52:32;;;;;;;5.63;3.50;;;;;20.70;101512.00;;;;2061350;28;20239;-46
2022/02/08 01:53:32;;;;;;;7.83;3.50;;;;;20.70;101505.00;;;;2061684;28;20222;-46
2022/02/08 01:54:33;;;;;;;6.63;3.60;;;;;20.70;101503.00;;;;2061598;28;20234;-47
2022/02/08 01:55:34;;;;;;;5.03;3.10;;;;;20.70;101501.00;;;;2055207;28;20706;-46
2022/02/08 01:56:35;;;;;;;6.72;3.50;;;;;20.70;101509.00;;;;2061713;28;20218;-46
2022/02/08 01:57:36;;;;;;;5.37;2.90;;;;;20.60;101505.00;;;;2061880;28;20207;-46
2022/02/08 01:58:36;;;;;;;5.25;2.92;;;;;20.70;101494.00;;;;2061873;28;20290;-46
2022/02/08 01:59:37;;;;;;;6.37;3.67;;;;;20.70;101503.00;;;;2062235;28;20286;-46
2022/02/08 02:00:37;;;;;;;8.40;3.40;;;;;20.60;101504.00;;;;2061136;28;20203;-46
2022/02/08 02:01:38;;;;;;;7.37;3.43;;;;;20.60;101497.00;;;;2061809;28;20214;-46
2022/02/08 02:02:39;;;;;;;5.28;3.30;;;;;20.70;101507.00;;;;2062114;28;20221;-46
2022/02/08 02:03:42;;;;;;;6.10;3.10;;;;;20.70;101501.00;;;;2061785;28;20210;-46
2022/02/08 02:04:43;;;;;;;6.80;3.47;;;;;20.60;101501.00;;;;2055724;28;20457;-46
2022/02/08 02:05:45;;;;;;;5.10;3.30;;;;;20.60;101495.00;;;;2063459;28;20859;-46
2022/02/08 02:06:46;;;;;;;5.53;3.20;;;;;20.50;101495.00;;;;2055090;28;20223;-46
2022/02/08 02:07:48;;;;;;;5.83;3.00;;;;;20.60;101494.00;;;;2055378;28;20207;-46
2022/02/08 02:08:48;;;;;;;6.53;3.63;;;;;20.60;101497.00;;;;2063544;28;20297;-46
2022/02/08 02:09:49;;;;;;;4.70;3.30;;;;;20.60;101493.00;;;;2052017;28;20719;-45
2022/02/08 02:10:49;;;;;;;9.27;3.00;;;;;20.60;101494.00;;;;2054859;28;20215;-46
2022/02/08 02:11:53;;;;;;;6.57;3.47;;;;;20.60;101493.00;;;;2055680;28;20688;-46
2022/02/08 02:12:57;;;;;;;5.45;3.05;;;;;20.50;101492.00;;;;2055690;28;20215;-46
2022/02/08 02:13:58;;;;;;;7.63;3.47;;;;;20.60;101488.00;;;;2055247;28;20216;-47
2022/02/08 02:15:03;;;;;;;6.85;3.20;;;;;20.60;101490.00;;;;2055259;28;20215;-46
2022/02/08 02:16:05;;;;;;;6.20;3.13;;;;;20.60;101482.00;;;;2055559;28;20566;-46
2022/02/08 02:17:08;;;;;;;6.07;3.20;;;;;20.60;101496.00;;;;2055501;28;20298;-46
2022/02/08 02:18:08;;;;;;;5.85;3.58;;;;;20.60;101482.00;;;;2054053;28;20231;-46
2022/02/08 02:19:09;;;;;;;7.47;3.60;;;;;20.60;101484.00;;;;2055648;28;20218;-46
2022/02/08 02:20:10;;;;;;;8.20;3.80;;;;;20.60;101485.00;;;;2063486;28;20222;-46
2022/02/08 02:21:10;;;;;;;5.30;3.23;;;;;20.60;101493.00;;;;2062497;28;20250;-46
2022/02/08 02:22:11;;;;;;;5.57;3.27;;;;;20.60;101483.00;;;;2061416;28;20477;-46
2022/02/08 02:23:12;;;;;;;5.90;2.97;;;;;20.60;101479.00;;;;2051112;28;20219;-46
2022/02/08 02:24:12;;;;;;;5.87;3.37;;;;;20.60;101486.00;;;;2063390;28;20907;-46
2022/02/08 02:25:24;;;;;;;6.47;3.27;;;;;20.60;101493.00;;;;2061861;28;20219;-46
2022/02/08 02:26:24;;;;;;;5.60;3.10;;;;;20.60;101480.00;;;;2061865;28;20223;-46
2022/02/08 02:27:24;;;;;;;4.80;2.80;;;;;20.60;101482.00;;;;2061751;28;20339;-46
2022/02/08 02:28:26;;;;;;;5.33;2.83;;;;;20.60;101494.00;;;;2056717;28;20230;-46
2022/02/08 02:29:29;;;;;;;5.60;3.03;;;;;20.60;101479.00;;;;2063442;28;20238;-46
2022/02/08 02:30:34;;;;;;;5.88;3.10;;;;;20.60;101468.00;;;;2060403;28;20250;-50
2022/02/08 02:31:34;;;;;;;4.20;2.60;;;;;20.60;101476.00;;;;2063420;28;20306;-46
2022/02/08 02:32:38;;;;;;;5.47;3.10;;;;;20.60;101471.00;;;;2063396;28;20204;-46
2022/02/08 02:33:39;;;;;;;6.63;3.45;;;;;20.60;101467.00;;;;2063553;28;20210;-46
2022/02/08 02:34:47;;;;;;;5.53;3.70;;;;;20.60;101462.00;;;;2063149;28;20293;-46
2022/02/08 02:35:48;;;;;;;6.78;2.95;;;;;20.60;101470.00;;;;2063645;28;20207;-46
2022/02/08 02:36:48;;;;;;;5.10;3.20;;;;;20.60;101470.00;;;;2063227;28;20239;-46
2022/02/08 02:37:49;;;;;;;5.10;2.80;;;;;20.60;101464.00;;;;2063039;28;20461;-46
2022/02/08 02:38:49;;;;;;;4.60;2.90;;;;;20.60;101462.00;;;;2063223;28;22796;-46
2022/02/08 02:39:50;;;;;;;7.53;3.10;;;;;20.60;101465.00;;;;2060872;28;20290;-46
2022/02/08 02:40:53;;;;;;;5.60;3.17;;;;;20.50;101481.00;;;;2061404;28;20220;-46
2022/02/08 02:41:54;;;;;;;5.15;2.90;;;;;20.50;101473.00;;;;2063317;28;21041;-46
2022/02/08 02:42:55;;;;;;;3.90;2.90;;;;;20.50;101461.00;;;;2063294;28;20265;-46
2022/02/08 02:43:55;;;;;;;5.53;3.28;;;;;20.50;101469.00;;;;2058663;28;20725;-46
2022/02/08 02:44:56;;;;;;;6.00;3.23;;;;;20.50;101468.00;;;;2054479;28;20223;-46
2022/02/08 02:45:59;;;;;;;5.70;2.90;;;;;20.50;101471.00;;;;2062323;28;20219;-46
2022/02/08 02:47:00;;;;;;;4.68;2.92;;;;;20.50;101480.00;;;;2063343;28;20219;-45
2022/02/08 02:48:00;;;;;;;7.00;3.03;;;;;20.50;101474.00;;;;2063229;28;20683;-46
2022/02/08 02:49:01;;;;;;;8.73;3.20;;;;;20.60;101480.00;;;;2063341;28;20705;-46
2022/02/08 02:50:04;;;;;;;6.83;2.80;;;;;20.50;101466.00;;;;2063344;28;20219;-46
2022/02/08 02:51:05;;;;;;;5.75;3.40;;;;;20.50;101471.00;;;;2062108;28;20222;-47
2022/02/08 02:52:07;;;;;;;5.40;3.20;;;;;20.50;101470.00;;;;2062939;28;20219;-46
2022/02/08 02:53:07;;;;;;;5.00;2.70;;;;;20.50;101463.00;;;;2063020;28;20298;-47
2022/02/08 02:54:19;;;;;;;7.43;2.77;;;;;20.50;101481.00;;;;2063216;28;20223;-47
2022/02/08 02:55:19;;;;;;;4.75;2.95;;;;;20.50;101462.00;;;;2060397;28;20215;-46
2022/02/08 02:56:20;;;;;;;5.45;2.50;;;;;20.50;101463.00;;;;2063382;28;20215;-47
2022/02/08 02:57:24;;;;;;;7.30;3.00;;;;;20.50;101462.00;;;;2063364;28;20314;-46
2022/02/08 02:58:26;;;;;;;5.10;2.80;;;;;20.50;101463.00;;;;2063224;28;20222;-46
2022/02/08 02:59:29;;;;;;;6.40;2.70;;;;;20.50;101470.00;;;;2055181;28;20217;-46
2022/02/08 03:00:39;;;;;;;5.60;2.85;;;;;20.50;101470.00;;;;2069920;28;20777;-46
2022/02/08 03:02:28;;;;;;;4.10;2.67;;;;;20.50;101459.00;;;;2066277;28;20221;-46
2022/02/08 03:04:29;;;;;;;4.50;2.33;;;;;20.50;101465.00;;;;2062498;28;20211;-46
2022/02/08 03:05:49;;;;;;;4.40;2.50;;;;;20.50;101473.00;;;;2056913;28;20220;-46
2022/02/08 03:17:36;;;;;;;4.70;2.95;;;;;20.40;101468.00;;;;2059938;28;20207;-46
2022/02/08 03:18:39;;;;;;;5.38;2.80;;;;;20.40;101473.00;;;;2062735;28;20555;-47
2022/02/08 03:19:39;;;;;;;4.35;2.30;;;;;20.40;101469.00;;;;2063208;28;20234;-46
2022/02/08 03:20:40;;;;;;;3.10;1.93;;;;;20.40;101475.00;;;;2062361;28;20222;-46
2022/02/08 03:21:41;;;;;;;4.17;2.33;;;;;20.40;101465.00;;;;2062365;28;20210;-46
2022/02/08 03:22:41;;;;;;;3.40;2.20;;;;;20.40;101471.00;;;;2063072;28;20593;-47
2022/02/08 03:23:42;;;;;;;4.40;2.53;;;;;20.50;101465.00;;;;2063231;28;20217;-46
2022/02/08 03:24:42;;;;;;;4.90;2.37;;;;;20.40;101473.00;;;;2063050;28;20199;-46
2022/02/08 03:25:42;;;;;;;4.50;2.30;;;;;20.40;101471.00;;;;2062653;28;20226;-47
2022/02/08 03:26:43;;;;;;;4.60;2.27;;;;;20.40;101477.00;;;;2063098;28;20211;-46
2022/02/08 03:27:44;;;;;;;3.80;2.20;;;;;20.40;101463.00;;;;2054389;28;20211;-46
2022/02/08 03:28:44;;;;;;;3.30;2.10;;;;;20.40;101472.00;;;;2054289;28;20215;-46
2022/02/08 03:29:44;;;;;;;3.40;2.30;;;;;20.40;101474.00;;;;2062926;28;20260;-46
2022/02/08 03:30:45;;;;;;;3.83;2.30;;;;;20.40;101469.00;;;;2062182;28;20203;-46
2022/02/08 03:31:45;;;;;;;3.50;2.40;;;;;20.40;101475.00;;;;2062946;28;20310;-46
2022/02/08 03:32:46;;;;;;;3.40;2.37;;;;;20.40;101469.00;;;;2063099;28;20203;-46
2022/02/08 03:33:47;;;;;;;4.87;2.40;;;;;20.40;101467.00;;;;2063077;28;21249;-46
2022/02/08 03:34:48;;;;;;;4.40;2.45;;;;;20.40;101472.00;;;;2061707;28;20210;-45
2022/02/08 03:35:50;;;;;;;4.50;2.67;;;;;20.40;101476.00;;;;2055803;28;20870;-47
2022/02/08 03:36:50;;;;;;;4.50;2.15;;;;;20.40;101476.00;;;;2062796;28;20326;-46
2022/02/08 03:38:03;;;;;;;3.97;2.03;;;;;20.40;101478.00;;;;2063127;28;20234;-46
2022/02/08 03:39:17;;;;;;;4.07;2.63;;;;;20.40;101477.00;;;;2063029;28;20218;-46
2022/02/08 03:40:30;;;;;;;3.83;2.05;;;;;20.40;101479.00;;;;2062381;28;20218;-46
2022/02/08 03:41:39;;;;;;;3.25;2.33;;;;;20.40;101480.00;;;;2062807;28;20226;-46
2022/02/08 03:42:57;;;;;;;5.40;2.50;;;;;20.40;101470.00;;;;2061827;28;20215;-47
2022/02/08 03:43:57;;;;;;;3.58;2.13;;;;;20.40;101473.00;;;;2062842;28;20227;-46
2022/02/08 03:44:59;;;;;;;4.07;2.30;;;;;20.40;101480.00;;;;2062752;28;20249;-46
2022/02/08 03:46:05;;;;;;;3.42;2.08;;;;;20.40;101471.00;;;;2062842;28;20782;-46
2022/02/08 03:47:08;;;;;;;3.13;1.75;;;;;20.40;101476.00;;;;2062252;28;20227;-46
2022/02/08 03:48:10;;;;;;;2.83;2.17;;;;;20.40;101476.00;;;;2061412;28;20273;-46
2022/02/08 03:49:11;;;;;;;3.65;2.10;;;;;20.40;101475.00;;;;2061863;28;20719;-52
2022/02/08 03:50:11;;;;;;;4.77;2.27;;;;;20.40;101476.00;;;;2061290;28;20314;-47
2022/02/08 03:51:14;;;;;;;2.80;2.30;;;;;20.40;101464.00;;;;2061307;28;20223;-47
2022/02/08 03:52:15;;;;;;;4.78;2.70;;;;;20.40;101463.00;;;;2057332;28;20219;-46
2022/02/08 03:53:15;;;;;;;4.17;2.10;;;;;20.40;101464.00;;;;2063017;28;20928;-46
2022/02/08 03:54:17;;;;;;;3.67;2.00;;;;;20.40;101460.00;;;;2056307;28;20246;-46
2022/02/08 03:55:18;;;;;;;3.42;2.00;;;;;20.40;101459.00;;;;2048571;28;20245;-46
2022/02/08 03:56:21;;;;;;;4.10;2.00;;;;;20.40;101463.00;;;;2046421;28;20319;-46
2022/02/08 03:57:24;;;;;;;5.30;2.10;;;;;20.40;101459.00;;;;2043239;28;20787;-45
2022/02/08 03:58:25;;;;;;;3.63;2.33;;;;;20.40;101462.00;;;;2041525;28;20282;-46
2022/02/08 03:59:25;;;;;;;3.43;2.20;;;;;20.40;101462.00;;;;2042263;28;20215;-46
2022/02/08 04:00:29;;;;;;;2.80;2.20;;;;;20.40;101469.00;;;;2045352;28;20208;-46
2022/02/08 04:02:00;;;;;;;3.75;2.10;;;;;20.40;101463.00;;;;2050687;28;20227;-46
2022/02/08 04:02:55;;;;;;;2.72;1.90;;;;;20.40;101473.00;;;;2054629;28;20273;-46
2022/02/08 04:05:30;;;;;;;2.45;1.85;;;;;20.40;101475.00;;;;2045288;28;20267;-46
2022/02/08 04:06:31;;;;;;;3.17;1.92;;;;;20.40;101465.00;;;;2053317;28;20579;-46
2022/02/08 04:07:37;;;;;;;3.70;2.00;;;;;20.40;101477.00;;;;2054555;28;20302;-46
2022/02/08 04:08:38;;;;;;;4.32;2.05;;;;;20.40;101473.00;;;;2054844;28;20294;-46
2022/02/08 04:09:39;;;;;;;2.90;1.75;;;;;20.40;101470.00;;;;2051974;28;20203;-46
2022/02/08 04:10:42;;;;;;;3.30;1.87;;;;;20.40;101462.00;;;;2054002;28;20215;-46
2022/02/08 04:11:53;;;;;;;3.17;2.13;;;;;20.30;101469.00;;;;2054469;28;20695;-46
2022/02/08 04:13:11;;;;;;;4.78;2.78;;;;;20.40;101472.00;;;;2054218;28;20215;-46
2022/02/08 04:14:27;;;;;;;4.10;2.35;;;;;20.40;101480.00;;;;2049418;28;20966;-46
2022/02/08 04:16:32;;;;;;;5.10;2.33;;;;;20.30;101465.00;;;;2054535;28;20231;-46
2022/02/08 04:17:43;;;;;;;2.95;2.25;;;;;20.30;101464.00;;;;2051536;28;20219;-46
2022/02/08 04:19:09;;;;;;;3.22;1.95;;;;;20.30;101478.00;;;;2052276;28;20648;-46
2022/02/08 04:32:15;;;;;;;3.58;2.20;;;;;20.30;101472.00;;;;2054124;28;20298;-46
2022/02/08 04:33:52;;;;;;;3.58;2.28;;;;;20.30;101458.00;;;;2061356;28;20617;-46
2022/02/08 04:38:28;;;;;;;3.87;2.00;;;;;20.30;101458.00;;;;2061964;28;20214;-46
2022/02/08 04:41:15;;;;;;;3.13;2.17;;;;;20.20;101474.00;;;;2021131;29;20218;-46
2022/02/08 04:42:25;;;;;;;3.75;2.17;;;;;20.30;101470.00;;;;2021303;29;20278;-46
2022/02/08 04:43:41;;;;;;;3.70;1.95;;;;;20.30;101473.00;;;;2021009;29;20301;-46
2022/02/08 04:44:51;;;;;;;3.05;1.80;;;;;20.30;101463.00;;;;2022021;29;20341;-46
2022/02/08 04:47:12;;;;;;;2.47;1.88;;;;;20.30;101469.00;;;;2042214;28;20299;-46
2022/02/08 04:48:27;;;;;;;3.25;2.13;;;;;20.30;101472.00;;;;2054500;28;20223;-46
2022/02/08 04:49:27;;;;;;;2.72;1.67;;;;;20.30;101474.00;;;;2048617;28;20301;-46
2022/02/08 04:50:30;;;;;;;2.50;2.00;;;;;20.30;101474.00;;;;2053641;28;20203;-46
2022/02/08 04:51:39;;;;;;;4.22;2.53;;;;;20.30;101469.00;;;;2048986;28;20710;-46
2022/02/08 04:52:40;;;;;;;3.60;2.05;;;;;20.30;101473.00;;;;2046678;28;20239;-46
2022/02/08 04:53:49;;;;;;;2.73;1.97;;;;;20.30;101481.00;;;;2046608;28;20935;-45
2022/02/08 04:54:59;;;;;;;4.88;2.00;;;;;20.30;101470.00;;;;2046105;28;20460;-46
2022/02/08 04:56:15;;;;;;;2.75;1.95;;;;;20.20;101472.00;;;;2050684;28;20889;-46
2022/02/08 04:58:35;;;;;;;3.15;2.22;;;;;20.20;101471.00;;;;2046748;28;20222;-46
2022/02/08 05:00:02;;;;;;;3.17;1.90;;;;;20.20;101468.00;;;;2054563;28;20211;-46
2022/02/08 05:01:14;;;;;;;3.33;2.20;;;;;20.20;101470.00;;;;2053108;28;20762;-46
2022/02/08 05:26:38;;;;;;;2.67;1.92;;;;;20.20;101473.00;;;;2054528;28;20222;-46
2022/02/08 05:28:57;;;;;;;4.30;2.88;;;;;20.20;101469.00;;;;2036636;29;20229;-47
2022/02/08 05:35:12;;;;;;;4.13;2.50;;;;;20.10;101475.00;;;;2046219;28;20212;-46
2022/02/08 05:36:18;;;;;;;3.42;2.30;;;;;20.20;101475.00;;;;2045775;28;20235;-48
2022/02/08 05:44:57;;;;;;;3.40;2.40;;;;;20.20;101444.00;;;;2046165;28;20235;-46
2022/02/08 05:46:58;;;;;;;3.45;2.30;;;;;20.20;101448.00;;;;2043002;28;20996;-47
2022/02/08 05:48:03;;;;;;;4.70;2.57;;;;;20.20;101442.00;;;;2035698;29;20217;-47
2022/02/08 05:49:06;;;;;;;3.47;2.75;;;;;20.20;101452.00;;;;2036958;29;20225;-47
2022/02/08 05:50:23;;;;;;;5.45;2.50;;;;;20.20;101445.00;;;;2030555;29;20300;-47
2022/02/08 05:51:33;;;;;;;3.05;2.25;;;;;20.20;101465.00;;;;2035385;29;20239;-46
2022/02/08 05:52:49;;;;;;;5.00;2.30;;;;;20.20;101448.00;;;;2036965;29;20740;-46
2022/02/08 05:53:50;;;;;;;3.00;2.25;;;;;20.20;101444.00;;;;2029732;29;20217;-46
2022/02/08 05:54:50;;;;;;;2.27;2.07;;;;;20.30;101407.00;;;;2030435;29;20600;-46
2022/02/08 05:55:50;;;;;;;5.13;2.33;;;;;20.20;101457.00;;;;2030618;29;20584;-47
2022/02/08 05:56:54;;;;;;;3.50;2.63;;;;;20.30;101444.00;;;;2028438;29;20252;-46
2022/02/08 05:57:56;;;;;;;3.65;2.22;;;;;20.20;101440.00;;;;2030399;29;20221;-47
2022/02/08 05:58:56;;;;;;;4.20;2.25;;;;;20.20;101440.00;;;;2033825;29;20221;-47
2022/02/08 05:59:57;;;;;;;3.40;2.47;;;;;20.20;101450.00;;;;2030195;29;20244;-46
2022/02/08 06:00:57;;;;;;;2.33;2.10;;;;;20.20;101441.00;;;;2036012;29;20225;-46
2022/02/08 06:01:58;;;;;;;4.13;2.23;;;;;20.30;101445.00;;;;2036993;29;20217;-46
2022/02/08 06:03:04;;;;;;;4.00;2.30;;;;;20.20;101442.00;;;;2029366;29;20217;-47
2022/02/08 06:04:05;;;;;;;2.72;2.22;;;;;20.30;101442.00;;;;2045038;29;20220;-46
2022/02/08 06:05:09;;;;;;;3.83;1.80;;;;;20.30;101441.00;;;;2037107;28;20243;-46
2022/02/08 06:06:10;;;;;;;3.65;1.90;;;;;20.30;101450.00;;;;2043394;28;20713;-46
2022/02/08 06:07:19;;;;;;;3.27;1.97;;;;;20.20;101446.00;;;;2046485;28;20216;-46
2022/02/08 06:08:19;;;;;;;8.73;2.30;;;;;20.30;101439.00;;;;2046140;28;20216;-47
2022/02/08 06:09:20;;;;;;;3.90;2.20;;;;;20.30;101449.00;;;;2045378;28;20250;-46
2022/02/08 06:10:21;;;;;;;3.90;2.00;;;;;20.30;101454.00;;;;2036968;29;20251;-46
2022/02/08 06:11:27;;;;;;;2.10;1.53;;;;;20.30;101453.00;;;;2042037;28;20696;-46
2022/02/08 06:12:28;;;;;;;2.97;1.90;;;;;20.30;101444.00;;;;2038903;28;20209;-47
2022/02/08 06:13:29;;;;;;;2.63;1.80;;;;;20.30;101444.00;;;;2030732;28;20689;-47
2022/02/08 06:14:35;;;;;;;2.47;1.92;;;;;20.30;101447.00;;;;2045692;28;20224;-46
2022/02/08 06:15:37;;;;;;;5.57;1.70;;;;;20.40;101440.00;;;;2035698;28;20672;-47
2022/02/08 06:16:40;;;;;;;3.05;1.50;;;;;20.40;101439.00;;;;2045210;28;20307;-47
2022/02/08 06:17:40;;;;;;;2.35;1.60;;;;;20.40;101439.00;;;;2037267;29;20217;-46
2022/02/08 06:18:41;;;;;;;2.73;1.87;;;;;20.40;101441.00;;;;2029503;29;20217;-47
2022/02/08 06:19:42;;;;;;;2.10;1.47;;;;;20.40;101431.00;;;;2044349;28;20216;-46
2022/02/08 06:20:42;;;;;;;2.28;1.60;;;;;20.40;101436.00;;;;2036667;28;20205;-47
2022/02/08 06:21:42;;;;;;;2.63;2.20;;;;;20.40;101434.00;;;;2037545;28;20208;-47
2022/02/08 06:22:44;;;;;;;4.50;3.33;;;;;20.50;101434.00;;;;2037939;29;20217;-47
2022/02/08 06:23:44;;;;;;;5.28;3.08;;;;;20.50;101436.00;;;;2032479;29;20209;-47
2022/02/08 06:24:47;;;;;;;6.33;4.67;;;;;20.50;101432.00;;;;2036877;29;20205;-46
2022/02/08 06:25:47;;;;;;;4.55;3.63;;;;;20.50;101441.00;;;;2037120;28;20241;-46
2022/02/08 06:26:48;;;;;;;4.30;2.90;;;;;20.50;101432.00;;;;2037397;28;20292;-46
2022/02/08 06:27:50;;;;;;;3.70;3.10;;;;;20.50;101435.00;;;;2029713;29;20285;-47
2022/02/08 06:29:04;;;;;;;3.95;3.45;;;;;20.50;101437.00;;;;2034772;29;20268;-47
2022/02/08 06:30:05;;;;;;;4.10;3.10;;;;;20.60;101434.00;;;;2037698;29;20237;-46
2022/02/08 06:31:05;;;;;;;6.80;3.23;;;;;20.60;101435.00;;;;2037405;29;20229;-47
2022/02/08 06:32:06;;;;;;;4.90;2.90;;;;;20.60;101436.00;;;;2035668;29;20454;-46
2022/02/08 06:33:07;;;;;;;7.90;5.13;;;;;20.60;101447.00;;;;2037098;29;20239;-47
2022/02/08 06:34:07;;;;;;;6.07;4.93;;;;;20.60;101451.00;;;;2038089;29;20217;-46
2022/02/08 06:35:17;;;;;;;15.93;10.90;;;;;20.60;101450.00;;;;2038216;29;20221;-47
2022/02/08 06:36:18;;;;;;;11.25;8.32;;;;;20.60;101451.00;;;;2037346;29;20217;-46
2022/02/08 06:37:21;;;;;;;8.90;6.97;;;;;20.60;101450.00;;;;2037645;29;20248;-46